Time;durP1;ratioP1;P1;durP2;ratioP2;P2;SDS_P1;SDS_P2;PMS_P1;PMS_P2;Temp;Humidity;BMP_temperature;BMP_pressure;BME280_temperature;BME280_humidity;BME280_pressure;Samples;Min_cycle;Max_cycle;Signal;HPM_P1;HPM_P2
2022/09/11 00:02:03;;;;;;;14.80;7.40;;;;;;;13.53;74.33;98375.91;105923;1273;110642;-65
2022/09/11 00:04:32;;;;;;;17.30;7.30;;;;;;;13.53;74.34;98374.83;107799;1274;96288;-63
2022/09/11 00:07:00;;;;;;;14.80;7.10;;;;;;;13.54;74.36;98374.30;106895;1274;108348;-65
2022/09/11 00:09:28;;;;;;;15.80;7.20;;;;;;;13.54;74.39;98371.02;105959;1274;95035;-63
2022/09/11 00:11:55;;;;;;;13.80;6.70;;;;;;;13.54;74.42;98374.73;105938;1274;94980;-63
2022/09/11 00:14:27;;;;;;;14.90;7.40;;;;;;;13.55;74.41;98371.88;107834;1273;110563;-64
2022/09/11 00:16:55;;;;;;;15.70;6.80;;;;;;;13.55;74.44;98363.05;106345;1273;94208;-64
2022/09/11 00:19:27;;;;;;;13.30;7.00;;;;;;;13.56;74.35;98366.27;106105;1273;107343;-64
2022/09/11 00:21:56;;;;;;;16.60;8.30;;;;;;;13.54;74.35;98360.67;106122;1273;96532;-64
2022/09/11 00:24:24;;;;;;;17.40;8.10;;;;;;;13.52;74.30;98361.11;106097;1273;96556;-62
2022/09/11 00:26:52;;;;;;;16.90;7.10;;;;;;;13.50;74.39;98357.74;106013;1273;110783;-64
2022/09/11 00:29:21;;;;;;;14.00;6.80;;;;;;;13.48;74.39;98356.13;106032;1273;94619;-64
2022/09/11 00:31:50;;;;;;;15.50;6.50;;;;;;;13.48;74.45;98357.91;106031;1273;108518;-63
2022/09/11 00:34:18;;;;;;;15.30;7.00;;;;;;;13.47;74.43;98352.69;106001;1273;96553;-63
2022/09/11 00:36:48;;;;;;;14.50;6.50;;;;;;;13.46;74.45;98350.81;106056;1273;96517;-64
2022/09/11 00:39:17;;;;;;;16.00;6.60;;;;;;;13.45;74.37;98356.24;106066;1273;110719;-63
2022/09/11 00:41:48;;;;;;;13.10;5.80;;;;;;;13.44;74.46;98354.04;106050;1273;95059;-65
2022/09/11 00:44:17;;;;;;;12.30;6.70;;;;;;;13.44;74.57;98350.89;106109;1274;107985;-63
2022/09/11 00:46:54;;;;;;;16.10;6.90;;;;;;;13.43;74.46;98348.45;106127;1273;96599;-62
2022/09/11 00:49:35;;;;;;;13.20;6.30;;;;;;;13.42;74.55;98347.48;106123;1273;96600;-64
2022/09/11 00:52:09;;;;;;;16.40;7.10;;;;;;;13.42;74.62;98346.23;106147;1273;110160;-63
2022/09/11 00:54:45;;;;;;;14.30;6.60;;;;;;;13.42;74.61;98347.10;106160;1273;96537;-63
2022/09/11 00:57:13;;;;;;;19.60;9.40;;;;;;;13.43;74.54;98346.15;106074;1274;107776;-63
2022/09/11 00:59:44;;;;;;;16.70;7.90;;;;;;;13.43;74.49;98344.84;106024;1273;96630;-64
2022/09/11 01:02:19;;;;;;;17.30;8.10;;;;;;;13.45;74.73;98350.59;106005;1273;96545;-63
2022/09/11 01:04:54;;;;;;;14.90;7.50;;;;;;;13.46;74.74;98349.70;105957;1273;110732;-64
2022/09/11 01:07:25;;;;;;;16.50;7.20;;;;;;;13.48;74.71;98354.31;105996;1273;94343;-63
2022/09/11 01:09:56;;;;;;;16.30;7.80;;;;;;;13.49;74.72;98351.95;106382;1273;107707;-64
2022/09/11 01:12:42;;;;;;;19.90;8.70;;;;;;;13.50;74.74;98350.59;106925;1273;96765;-65
2022/09/11 01:15:42;;;;;;;15.10;8.20;;;;;;;13.50;74.72;98350.20;105950;1274;94287;-64
2022/09/11 01:18:12;;;;;;;16.10;7.80;;;;;;;13.51;74.76;98351.17;105996;1274;110698;-64
2022/09/11 01:20:52;;;;;;;14.90;7.50;;;;;;;13.53;74.83;98345.32;105965;1273;95015;-65
2022/09/11 01:23:58;;;;;;;19.10;9.10;;;;;;;13.55;74.77;98352.56;107570;1273;107772;-65
2022/09/11 01:27:00;;;;;;;17.80;8.20;;;;;;;13.58;74.90;98352.00;105895;1274;94348;-64
2022/09/11 01:29:43;;;;;;;15.20;8.20;;;;;;;13.60;74.81;98349.46;106997;1273;96623;-65
2022/09/11 01:32:20;;;;;;;16.10;8.40;;;;;;;13.63;74.93;98349.05;107771;1273;110927;-64
2022/09/11 01:35:13;;;;;;;18.10;8.30;;;;;;;13.65;74.85;98349.02;107240;1274;96537;-64
2022/09/11 01:37:51;;;;;;;17.30;8.30;;;;;;;13.67;74.85;98352.46;106120;1273;107758;-63
2022/09/11 01:40:53;;;;;;;18.80;8.40;;;;;;;13.69;74.82;98346.80;106142;1273;94270;-65
2022/09/11 01:43:29;;;;;;;15.70;8.30;;;;;;;13.69;74.85;98342.73;106018;1274;96640;-64
2022/09/11 01:46:02;;;;;;;17.50;8.50;;;;;;;13.69;74.82;98344.23;106008;1274;110049;-63
2022/09/11 01:48:47;;;;;;;15.30;8.10;;;;;;;13.71;74.96;98348.21;106039;1274;94306;-64
2022/09/11 01:51:26;;;;;;;17.30;8.60;;;;;;;13.72;74.92;98347.92;106100;1273;107874;-64
2022/09/11 01:53:59;;;;;;;18.30;9.00;;;;;;;13.73;74.93;98351.63;106093;1273;96623;-65
2022/09/11 01:56:40;;;;;;;18.40;10.00;;;;;;;13.71;74.92;98352.35;106037;1274;96530;-64
2022/09/11 01:59:11;;;;;;;21.00;10.70;;;;;;;13.71;75.03;98351.05;106007;1274;110003;-66
2022/09/11 02:01:44;;;;;;;19.60;11.50;;;;;;;13.72;74.98;98344.44;105992;1274;94353;-64
2022/09/11 02:04:24;;;;;;;17.40;10.10;;;;;;;13.71;74.99;98346.08;105975;1274;108237;-63
2022/09/11 02:07:01;;;;;;;17.60;9.20;;;;;;;13.72;75.04;98346.75;106009;1274;96669;-64
2022/09/11 02:09:40;;;;;;;20.10;11.30;;;;;;;13.72;75.03;98347.45;106019;1274;94268;-63
2022/09/11 02:12:16;;;;;;;18.80;10.30;;;;;;;13.71;74.97;98345.02;105978;1274;110964;-63
2022/09/11 02:14:48;;;;;;;;;;;;;;;13.70;75.06;98339.92;106023;1273;96353;-63
2022/09/11 02:17:30;;;;;;;18.00;10.10;;;;;;;13.67;75.16;98334.14;105979;1274;108768;-63
2022/09/11 02:20:02;;;;;;;21.80;11.50;;;;;;;13.68;75.15;98333.84;106005;1274;96633;-65
2022/09/11 02:22:32;;;;;;;21.00;11.50;;;;;;;13.69;75.09;98333.78;106021;1274;96511;-63
2022/09/11 02:25:03;;;;;;;21.90;12.00;;;;;;;13.68;75.09;98329.73;105997;1274;110653;-63
2022/09/11 02:27:33;;;;;;;21.30;12.40;;;;;;;13.68;75.10;98329.77;106115;1273;94344;-62
2022/09/11 02:30:01;;;;;;;21.40;11.90;;;;;;;13.70;75.18;98332.48;106045;1273;107381;-65
2022/09/11 02:32:39;;;;;;;21.70;12.70;;;;;;;13.70;75.04;98328.71;106155;1274;97132;-64
2022/09/11 02:35:10;;;;;;;20.10;10.70;;;;;;;13.69;75.18;98327.18;106049;1273;96528;-63
2022/09/11 02:37:58;;;;;;;20.70;11.40;;;;;;;13.71;75.16;98324.75;106070;1273;108928;-64
2022/09/11 02:40:28;;;;;;;20.80;11.70;;;;;;;13.71;75.12;98324.58;106088;1273;96559;-64
2022/09/11 02:43:26;;;;;;;21.70;12.00;;;;;;;13.69;75.10;98318.45;106028;1273;108547;-64
2022/09/11 02:46:52;;;;;;;21.60;12.90;;;;;;;13.66;75.03;98322.66;106010;1273;96655;-63
2022/09/11 02:49:40;;;;;;;21.30;11.90;;;;;;;13.63;75.22;98324.05;105924;1273;96632;-66
2022/09/11 02:52:23;;;;;;;22.90;13.50;;;;;;;13.64;75.01;98316.36;106023;1273;110998;-64
2022/09/11 02:54:54;;;;;;;20.10;11.00;;;;;;;13.63;75.10;98322.69;106058;1273;94258;-62
2022/09/11 02:57:32;;;;;;;23.10;14.80;;;;;;;13.61;75.13;98321.61;106049;1273;108317;-62
2022/09/11 03:00:05;;;;;;;22.60;14.10;;;;;;;13.59;75.23;98322.65;106032;1273;96520;-63
2022/09/11 03:02:39;;;;;;;23.10;13.30;;;;;;;13.60;75.22;98320.27;106050;1273;96524;-64
2022/09/11 03:05:10;;;;;;;23.80;15.80;;;;;;;13.59;75.08;98324.60;106062;1273;110042;-63
2022/09/11 03:07:40;;;;;;;25.50;14.80;;;;;;;13.58;75.16;98326.38;106085;1273;96649;-66
2022/09/11 03:10:10;;;;;;;23.40;14.50;;;;;;;13.57;75.21;98327.67;106066;1273;108926;-65
2022/09/11 03:12:41;;;;;;;26.60;15.30;;;;;;;13.58;75.33;98331.46;106051;1273;94268;-64
2022/09/11 03:15:16;;;;;;;22.90;13.70;;;;;;;13.59;75.18;98332.89;106121;1273;96572;-63
2022/09/11 03:17:44;;;;;;;22.40;15.00;;;;;;;13.56;75.24;98331.87;106124;1273;110058;-64
2022/09/11 03:20:11;;;;;;;24.10;15.30;;;;;;;13.56;75.24;98335.80;106079;1273;97082;-63
2022/09/11 03:22:40;;;;;;;24.80;16.00;;;;;;;13.56;75.20;98332.77;106107;1273;108533;-63
2022/09/11 03:25:10;;;;;;;22.80;15.20;;;;;;;13.54;75.20;98333.98;106050;1273;95013;-64
2022/09/11 03:27:41;;;;;;;25.50;14.40;;;;;;;13.53;75.26;98334.51;106097;1273;96546;-64
2022/09/11 03:30:13;;;;;;;24.10;14.00;;;;;;;13.51;75.20;98336.11;106080;1273;110872;-63
2022/09/11 03:32:43;;;;;;;22.50;13.90;;;;;;;13.50;75.23;98336.01;106152;1273;94681;-64
2022/09/11 03:35:11;;;;;;;22.70;14.20;;;;;;;13.49;75.17;98334.64;106132;1272;108340;-64
2022/09/11 03:37:39;;;;;;;23.50;14.50;;;;;;;13.47;75.31;98333.09;106137;1273;94274;-63
2022/09/11 03:40:09;;;;;;;25.90;15.10;;;;;;;13.46;75.23;98337.23;106097;1273;96440;-63
2022/09/11 03:42:39;;;;;;;22.90;14.30;;;;;;;13.47;75.27;98339.86;106141;1273;111029;-62
2022/09/11 03:45:10;;;;;;;23.00;13.90;;;;;;;13.44;75.15;98345.09;106145;1273;96526;-64
2022/09/11 03:47:41;;;;;;;23.40;15.60;;;;;;;13.43;75.31;98349.19;106125;1273;107762;-65
2022/09/11 03:50:10;;;;;;;27.90;15.90;;;;;;;13.41;75.21;98350.54;106135;1273;96550;-64
2022/09/11 03:52:39;;;;;;;23.10;14.30;;;;;;;13.40;75.26;98351.36;103276;1273;3891291;-67
2022/09/11 03:55:09;;;;;;;22.40;14.00;;;;;;;13.39;75.24;98346.27;106115;1273;110695;-65
2022/09/11 03:57:39;;;;;;;25.50;15.90;;;;;;;13.39;75.29;98346.30;106096;1273;96740;-62
2022/09/11 04:00:10;;;;;;;23.50;14.00;;;;;;;13.40;75.26;98349.58;106156;1273;107787;-65
2022/09/11 04:02:41;;;;;;;23.70;16.00;;;;;;;13.38;75.29;98353.63;106134;1273;96641;-64
2022/09/11 04:05:11;;;;;;;22.50;14.20;;;;;;;13.36;75.34;98351.50;106155;1273;94267;-63
2022/09/11 04:07:38;;;;;;;23.80;15.90;;;;;;;13.36;75.45;98360.05;106132;1273;110694;-63
2022/09/11 04:10:09;;;;;;;24.60;14.80;;;;;;;13.36;75.46;98357.61;106143;1273;96588;-65
2022/09/11 04:12:43;;;;;;;25.60;15.50;;;;;;;13.36;75.41;98358.87;106101;1273;108227;-64
2022/09/11 04:15:10;;;;;;;25.70;15.90;;;;;;;13.36;75.48;98357.44;106074;1273;96633;-65
2022/09/11 04:17:40;;;;;;;22.60;14.20;;;;;;;13.36;75.46;98357.90;106112;1273;96512;-63
2022/09/11 04:20:10;;;;;;;27.90;17.70;;;;;;;13.37;75.52;98357.35;106084;1273;110091;-66
2022/09/11 04:22:42;;;;;;;28.80;16.40;;;;;;;13.37;75.45;98358.39;106096;1273;96534;-65
2022/09/11 04:25:13;;;;;;;25.60;16.00;;;;;;;13.37;75.47;98357.69;106116;1273;107979;-65
2022/09/11 04:27:44;;;;;;;25.60;16.10;;;;;;;13.37;75.53;98353.61;106159;1273;94264;-64
2022/09/11 04:30:14;;;;;;;25.30;16.50;;;;;;;13.38;75.60;98354.77;106060;1273;96578;-63
2022/09/11 04:32:45;;;;;;;22.60;14.10;;;;;;;13.39;75.54;98356.59;106039;1273;110685;-63
2022/09/11 04:35:13;;;;;;;26.00;17.40;;;;;;;13.39;75.52;98359.48;105994;1274;96579;-63
2022/09/11 04:37:45;;;;;;;27.30;17.40;;;;;;;13.38;75.62;98357.04;106041;1273;108411;-64
2022/09/11 04:40:14;;;;;;;24.30;15.50;;;;;;;13.39;75.61;98356.20;106050;1273;94367;-66
2022/09/11 04:42:43;;;;;;;23.60;15.30;;;;;;;13.40;75.54;98355.60;106088;1273;96485;-66
2022/09/11 04:45:13;;;;;;;25.90;17.30;;;;;;;13.40;75.56;98346.73;106041;1272;111179;-65
2022/09/11 04:47:42;;;;;;;27.90;17.40;;;;;;;13.41;75.55;98349.31;106059;1273;94333;-66
2022/09/11 04:50:13;;;;;;;26.60;16.50;;;;;;;13.43;75.53;98346.88;106005;1272;107743;-67
2022/09/11 04:52:45;;;;;;;27.80;17.60;;;;;;;13.42;75.59;98343.89;106040;1273;94261;-65
2022/09/11 04:55:14;;;;;;;28.00;18.30;;;;;;;13.44;75.63;98343.55;106104;1273;96501;-65
2022/09/11 04:57:44;;;;;;;27.20;16.90;;;;;;;13.45;75.67;98342.02;106067;1273;110478;-65
2022/09/11 05:00:16;;;;;;;28.20;16.20;;;;;;;13.47;75.59;98337.30;106072;1273;94306;-65
2022/09/11 05:02:46;;;;;;;27.40;17.20;;;;;;;13.49;75.61;98337.30;106122;1273;108421;-63
2022/09/11 05:05:16;;;;;;;26.50;16.50;;;;;;;13.51;75.67;98337.46;106052;1273;96524;-64
2022/09/11 05:07:49;;;;;;;25.20;15.60;;;;;;;13.52;75.63;98335.05;106078;1273;96473;-65
2022/09/11 05:10:20;;;;;;;27.40;17.60;;;;;;;13.52;75.61;98336.30;106067;1273;110894;-64
2022/09/11 05:12:49;;;;;;;26.00;16.40;;;;;;;13.53;75.64;98333.60;106033;1273;96602;-65
2022/09/11 05:15:19;;;;;;;29.80;18.70;;;;;;;13.53;75.71;98333.03;106025;1273;107219;-63
2022/09/11 05:17:47;;;;;;;29.40;18.80;;;;;;;13.55;75.70;98329.98;106070;1273;94256;-64
2022/09/11 05:20:15;;;;;;;28.80;18.10;;;;;;;13.57;75.69;98332.98;106099;1273;96665;-63
2022/09/11 05:22:45;;;;;;;28.50;18.00;;;;;;;13.59;75.69;98335.15;106144;1273;111199;-62
2022/09/11 05:25:18;;;;;;;28.30;17.40;;;;;;;13.61;75.73;98333.00;106034;1274;96536;-66
2022/09/11 05:27:49;;;;;;;27.30;18.00;;;;;;;13.63;75.69;98337.25;105964;1273;108902;-64
2022/09/11 05:30:19;;;;;;;28.50;19.40;;;;;;;13.64;75.76;98338.75;106039;1273;96629;-67
2022/09/11 05:32:55;;;;;;;28.00;18.60;;;;;;;13.64;75.78;98335.17;106058;1273;96403;-66
2022/09/11 05:35:23;;;;;;;29.40;18.70;;;;;;;13.66;75.78;98341.02;106000;1273;110718;-65
2022/09/11 05:38:01;;;;;;;31.10;20.20;;;;;;;13.68;75.74;98342.92;106122;1273;94318;-64
2022/09/11 05:40:31;;;;;;;30.60;19.10;;;;;;;13.72;75.73;98338.55;106101;1273;108728;-65
2022/09/11 05:42:59;;;;;;;30.50;19.20;;;;;;;13.75;75.81;98335.76;106148;1273;94773;-64
2022/09/11 05:45:30;;;;;;;30.10;18.40;;;;;;;13.77;75.79;98331.07;106093;1273;96533;-64
2022/09/11 05:48:03;;;;;;;26.50;17.00;;;;;;;13.79;75.73;98324.98;106043;1274;110071;-66
2022/09/11 05:50:35;;;;;;;26.40;15.90;;;;;;;13.82;75.92;98328.48;106136;1273;94275;-64
2022/09/11 05:53:06;;;;;;;23.40;14.00;;;;;;;13.85;75.71;98327.61;106076;1273;108765;-65
2022/09/11 05:55:36;;;;;;;23.90;14.30;;;;;;;13.88;75.71;98324.86;105982;1274;96627;-62
2022/09/11 05:58:05;;;;;;;22.20;12.20;;;;;;;13.92;75.77;98323.43;106032;1273;96567;-65
2022/09/11 06:00:35;;;;;;;21.30;12.00;;;;;;;13.97;75.79;98322.86;106052;1273;110019;-62
2022/09/11 06:03:04;;;;;;;21.50;12.10;;;;;;;14.02;75.67;98321.94;106059;1273;96604;-66
2022/09/11 06:05:37;;;;;;;21.90;11.30;;;;;;;14.05;75.76;98318.33;105994;1273;107704;-64
2022/09/11 06:08:11;;;;;;;19.90;10.60;;;;;;;14.10;75.79;98318.02;106022;1273;96503;-64
2022/09/11 06:10:47;;;;;;;19.90;10.60;;;;;;;14.16;75.79;98318.92;106045;1273;96505;-64
2022/09/11 06:13:16;;;;;;;21.10;11.00;;;;;;;14.21;75.79;98316.10;106095;1273;111837;-67
2022/09/11 06:15:48;;;;;;;18.10;10.10;;;;;;;14.25;75.77;98320.34;106121;1273;96538;-64
2022/09/11 06:18:16;;;;;;;18.00;9.30;;;;;;;14.29;75.77;98322.25;105995;1273;108393;-64
2022/09/11 06:20:54;;;;;;;21.60;9.80;;;;;;;14.32;75.72;98319.99;105984;1273;94332;-65
2022/09/11 06:23:26;;;;;;;21.70;10.30;;;;;;;14.35;75.68;98321.13;105979;1274;95485;-60
2022/09/11 06:26:02;;;;;;;20.00;10.20;;;;;;;14.36;75.66;98324.73;106023;1273;110280;-63
2022/09/11 06:28:34;;;;;;;19.00;9.10;;;;;;;14.38;75.68;98320.45;105995;1273;96507;-60
2022/09/11 06:31:04;;;;;;;21.20;10.70;;;;;;;14.38;75.64;98318.81;105981;1273;107839;-60
2022/09/11 06:33:39;;;;;;;17.80;9.90;;;;;;;14.40;75.58;98319.16;106029;1273;96648;-64
2022/09/11 06:36:12;;;;;;;19.60;11.00;;;;;;;14.39;75.56;98320.54;106090;1272;96464;-65
2022/09/11 06:38:44;;;;;;;21.80;11.50;;;;;;;14.40;75.58;98324.02;106062;1273;110610;-63
2022/09/11 06:41:15;;;;;;;22.00;10.40;;;;;;;14.41;75.54;98328.21;106068;1273;96626;-62
2022/09/11 06:43:44;;;;;;;21.60;12.60;;;;;;;14.42;75.55;98328.45;106010;1273;108395;-61
2022/09/11 06:46:17;;;;;;;21.50;12.30;;;;;;;14.44;75.57;98324.29;106033;1273;94277;-64
2022/09/11 06:48:50;;;;;;;19.00;10.80;;;;;;;14.46;75.59;98322.89;106118;1273;94207;-63
2022/09/11 06:51:22;;;;;;;22.20;12.40;;;;;;;14.49;75.52;98325.45;106028;1273;109648;-65
2022/09/11 06:53:56;;;;;;;23.00;12.50;;;;;;;14.52;75.61;98324.63;106027;1273;96536;-62
2022/09/11 06:56:31;;;;;;;22.00;12.90;;;;;;;14.55;75.55;98326.21;106013;1273;107722;-62
2022/09/11 06:59:02;;;;;;;21.50;12.60;;;;;;;14.59;75.53;98324.06;106088;1273;94985;-61
2022/09/11 07:01:32;;;;;;;23.80;14.20;;;;;;;14.62;75.54;98322.95;106109;1273;96573;-64
2022/09/11 07:04:04;;;;;;;24.40;13.50;;;;;;;14.65;75.61;98325.41;106064;1273;110560;-65
2022/09/11 07:06:34;;;;;;;23.90;14.00;;;;;;;14.68;75.53;98323.90;106043;1273;94269;-66
2022/09/11 07:09:03;;;;;;;24.30;14.70;;;;;;;14.71;75.57;98326.63;105788;1273;108350;-66
2022/09/11 07:11:35;;;;;;;24.20;13.40;;;;;;;14.75;75.55;98325.57;105965;1273;96573;-62
2022/09/11 07:14:05;;;;;;;22.10;12.50;;;;;;;14.80;75.61;98325.21;105975;1273;96583;-63
2022/09/11 07:16:36;;;;;;;23.90;12.90;;;;;;;14.85;75.54;98324.30;105946;1273;110268;-66
2022/09/11 07:19:09;;;;;;;23.40;12.70;;;;;;;14.92;75.54;98325.45;105952;1273;97312;-66
2022/09/11 07:21:37;;;;;;;24.00;12.60;;;;;;;14.96;75.56;98324.84;105945;1273;107699;-66
2022/09/11 07:24:06;;;;;;;22.60;12.10;;;;;;;15.00;75.56;98323.13;105972;1273;96608;-64
2022/09/11 07:26:35;;;;;;;23.30;12.70;;;;;;;15.04;75.46;98321.17;105833;1273;94296;-65
2022/09/11 07:29:04;;;;;;;21.30;11.40;;;;;;;15.08;75.52;98313.05;105965;1274;111057;-66
2022/09/11 07:31:33;;;;;;;21.50;11.80;;;;;;;15.11;75.50;98313.44;105715;1273;95009;-67
2022/09/11 07:34:02;;;;;;;23.30;11.60;;;;;;;15.14;75.56;98313.30;105715;1273;108384;-66
2022/09/11 07:36:34;;;;;;;22.90;13.30;;;;;;;15.15;75.55;98311.05;106002;1273;94268;-63
2022/09/11 07:39:05;;;;;;;21.10;11.40;;;;;;;15.13;75.51;98311.27;106067;1273;95218;-65
2022/09/11 07:41:33;;;;;;;20.90;11.50;;;;;;;15.10;75.41;98313.42;106079;1273;110055;-67
2022/09/11 07:44:02;;;;;;;23.10;11.90;;;;;;;15.03;75.34;98316.05;106082;1273;96537;-66
2022/09/11 07:46:34;;;;;;;22.70;12.00;;;;;;;14.98;75.44;98315.91;106038;1273;107454;-65
2022/09/11 07:49:08;;;;;;;21.30;11.20;;;;;;;14.94;75.34;98317.23;106085;1273;96538;-64
2022/09/11 07:51:42;;;;;;;21.60;11.70;;;;;;;14.89;75.38;98314.13;106113;1273;96511;-65
2022/09/11 07:54:11;;;;;;;21.00;12.20;;;;;;;14.86;75.49;98310.86;106148;1273;110665;-63
2022/09/11 07:56:42;;;;;;;23.00;12.20;;;;;;;14.85;75.53;98319.33;106120;1273;95053;-69
2022/09/11 07:59:10;;;;;;;23.70;13.30;;;;;;;14.83;75.54;98314.00;106139;1273;107799;-65
2022/09/11 08:01:41;;;;;;;20.10;10.70;;;;;;;14.84;75.58;98314.30;106103;1273;96503;-66
2022/09/11 08:04:13;;;;;;;20.80;11.50;;;;;;;14.85;75.49;98314.02;106142;1273;96535;-67
2022/09/11 08:06:46;;;;;;;20.10;10.50;;;;;;;14.83;75.42;98315.94;106032;1273;110751;-66
2022/09/11 08:09:14;;;;;;;20.40;10.60;;;;;;;14.84;75.42;98316.81;106092;1273;94300;-66
2022/09/11 08:11:48;;;;;;;20.40;10.90;;;;;;;14.80;75.39;98319.80;106065;1273;108369;-66
2022/09/11 08:14:19;;;;;;;20.40;11.10;;;;;;;14.77;75.43;98322.88;105993;1273;94257;-66
2022/09/11 08:16:49;;;;;;;23.80;12.20;;;;;;;14.75;75.29;98330.87;106099;1273;96753;-65
2022/09/11 08:19:23;;;;;;;21.60;12.30;;;;;;;14.71;75.32;98325.73;106120;1273;110676;-65
2022/09/11 08:21:51;;;;;;;20.30;11.00;;;;;;;14.67;75.36;98324.82;106043;1273;96823;-65
2022/09/11 08:24:23;;;;;;;22.50;12.00;;;;;;;14.67;75.43;98326.05;106017;1273;108412;-67
2022/09/11 08:26:57;;;;;;;20.10;11.20;;;;;;;14.65;75.35;98322.91;106049;1273;95357;-66
2022/09/11 08:29:31;;;;;;;19.70;10.10;;;;;;;14.66;75.42;98320.56;106129;1273;96433;-66
2022/09/11 08:32:00;;;;;;;22.40;12.50;;;;;;;14.69;75.41;98320.92;106134;1273;111596;-67
2022/09/11 08:34:31;;;;;;;20.70;11.10;;;;;;;14.74;75.45;98324.17;106106;1273;95040;-68
2022/09/11 08:36:59;;;;;;;23.80;13.40;;;;;;;14.80;75.38;98328.36;106097;1273;108265;-67
2022/09/11 08:39:31;;;;;;;22.50;12.30;;;;;;;14.85;75.56;98321.86;106073;1273;96640;-68
2022/09/11 08:42:15;;;;;;;22.00;12.10;;;;;;;14.92;75.53;98327.92;106096;1273;96517;-69
2022/09/11 08:44:57;;;;;;;23.00;12.50;;;;;;;14.98;75.47;98331.19;106013;1273;113179;-65
2022/09/11 08:47:33;;;;;;;21.40;11.20;;;;;;;15.01;75.48;98329.50;106161;1273;96536;-66
2022/09/11 08:50:23;;;;;;;20.40;11.60;;;;;;;15.05;75.51;98330.13;106066;1273;107872;-66
2022/09/11 08:52:55;;;;;;;22.10;12.50;;;;;;;15.11;75.53;98328.50;106094;1273;95190;-67
2022/09/11 08:55:48;;;;;;;21.90;11.80;;;;;;;15.14;75.47;98329.23;106061;1273;96712;-66
2022/09/11 08:58:37;;;;;;;18.60;10.80;;;;;;;15.15;75.39;98326.83;106064;1273;110652;-66
2022/09/11 09:01:27;;;;;;;21.30;11.80;;;;;;;15.17;75.48;98331.75;106094;1273;94216;-66
2022/09/11 09:04:40;;;;;;;19.50;10.30;;;;;;;15.17;75.42;98326.23;106042;1273;109474;-66
2022/09/11 09:07:45;;;;;;;22.10;11.60;;;;;;;15.13;75.35;98328.56;106039;1273;94566;-66
2022/09/11 09:10:45;;;;;;;18.80;10.30;;;;;;;15.11;75.37;98328.23;106039;1273;96547;-66
2022/09/11 09:13:28;;;;;;;20.90;11.40;;;;;;;15.14;75.41;98321.23;106103;1273;110739;-66
2022/09/11 09:16:25;;;;;;;19.00;10.30;;;;;;;15.19;75.49;98320.17;106084;1273;96520;-65
2022/09/11 09:19:07;;;;;;;19.50;11.40;;;;;;;15.26;75.42;98320.30;106153;1273;106797;-63
2022/09/11 09:21:38;;;;;;;19.80;10.30;;;;;;;15.31;75.27;98317.28;106125;1273;94994;-65
2022/09/11 09:24:20;;;;;;;20.10;10.70;;;;;;;15.32;75.23;98320.52;106057;1273;96522;-66
2022/09/11 09:26:57;;;;;;;19.70;9.90;;;;;;;15.35;75.36;98319.20;105995;1273;110095;-66
2022/09/11 09:29:34;;;;;;;17.20;9.00;;;;;;;15.37;75.16;98318.09;106184;1273;96542;-68
2022/09/11 09:32:13;;;;;;;16.80;8.50;;;;;;;15.39;75.10;98320.04;106048;1273;108409;-70
2022/09/11 09:34:44;;;;;;;18.10;9.00;;;;;;;15.45;75.14;98315.29;106020;1273;96721;-69
2022/09/11 09:37:21;;;;;;;16.60;7.60;;;;;;;15.50;75.04;98314.77;106094;1274;96502;-69
2022/09/11 09:39:50;;;;;;;16.90;8.00;;;;;;;15.53;75.20;98315.07;106096;1273;109888;-66
2022/09/11 09:42:29;;;;;;;16.20;7.50;;;;;;;15.57;75.03;98323.39;105899;1273;96553;-65
2022/09/11 09:45:20;;;;;;;16.90;8.10;;;;;;;15.58;75.08;98319.64;105974;1273;108421;-65
2022/09/11 09:47:49;;;;;;;16.20;8.00;;;;;;;15.59;74.94;98320.95;105945;1273;96646;-69
2022/09/11 09:50:44;;;;;;;15.10;7.70;;;;;;;15.64;75.18;98321.51;106091;1273;96498;-66
2022/09/11 09:53:27;;;;;;;15.10;7.80;;;;;;;15.68;75.16;98319.94;106040;1273;110752;-66
2022/09/11 09:55:59;;;;;;;19.30;8.20;;;;;;;15.67;74.87;98322.36;106177;1273;94219;-70
2022/09/11 09:58:38;;;;;;;16.00;7.60;;;;;;;15.63;75.01;98321.48;106040;1273;109609;-69
2022/09/11 10:01:45;;;;;;;14.80;7.60;;;;;;;15.62;74.88;98323.84;105987;1273;96547;-68
2022/09/11 10:04:14;;;;;;;17.20;8.70;;;;;;;15.60;74.93;98326.88;106022;1273;96540;-66
2022/09/11 10:06:45;;;;;;;19.00;9.30;;;;;;;15.59;75.03;98321.59;106018;1273;110848;-69
2022/09/11 10:09:22;;;;;;;15.70;8.00;;;;;;;15.59;74.79;98327.48;106054;1273;96373;-67
2022/09/11 10:12:01;;;;;;;14.70;7.40;;;;;;;15.59;74.81;98323.70;106027;1273;107806;-67
2022/09/11 10:14:33;;;;;;;16.70;8.70;;;;;;;15.57;74.79;98323.65;105952;1273;95240;-66
2022/09/11 10:17:31;;;;;;;16.80;8.20;;;;;;;15.58;74.81;98327.33;105932;1273;96657;-67
2022/09/11 10:20:22;;;;;;;20.00;9.50;;;;;;;15.59;74.95;98322.80;106030;1273;110676;-75
2022/09/11 10:22:53;;;;;;;17.60;9.20;;;;;;;15.61;74.78;98321.16;106122;1273;96544;-68
2022/09/11 10:25:28;;;;;;;17.50;8.90;;;;;;;15.64;74.88;98324.09;106050;1273;106393;-69
2022/09/11 10:28:30;;;;;;;16.50;8.60;;;;;;;15.67;74.92;98327.05;106016;1273;96584;-65
2022/09/11 10:31:07;;;;;;;18.50;9.20;;;;;;;15.68;74.83;98328.70;106109;1273;96501;-67
2022/09/11 10:34:03;;;;;;;20.40;9.80;;;;;;;15.64;74.78;98328.14;106096;1273;113045;-65
2022/09/11 10:36:33;;;;;;;18.30;9.50;;;;;;;15.60;74.80;98329.97;105957;1273;96584;-66
2022/09/11 10:39:02;;;;;;;18.00;9.50;;;;;;;15.61;74.77;98328.63;106394;1273;107754;-66
2022/09/11 10:41:33;;;;;;;19.40;9.70;;;;;;;15.72;74.81;98327.29;106558;1273;96563;-66
2022/09/11 10:44:13;;;;;;;22.50;12.50;;;;;;;15.89;74.84;98326.46;105981;1273;96584;-66
2022/09/11 10:46:42;;;;;;;18.50;9.40;;;;;;;16.05;74.66;98321.41;106465;1273;109204;-65
2022/09/11 10:49:10;;;;;;;16.20;9.10;;;;;;;16.16;74.83;98319.51;106055;1273;94907;-66
2022/09/11 10:51:41;;;;;;;15.90;7.70;;;;;;;16.28;74.86;98323.44;106030;1273;108346;-66
2022/09/11 10:54:33;;;;;;;16.50;8.40;;;;;;;16.35;74.54;98325.78;105947;1273;96919;-67
2022/09/11 10:57:25;;;;;;;18.20;9.10;;;;;;;16.38;74.66;98325.34;105910;1273;96515;-67
2022/09/11 11:00:21;;;;;;;17.80;8.80;;;;;;;16.32;74.43;98326.66;105896;1273;110649;-67
2022/09/11 11:03:09;;;;;;;17.10;8.20;;;;;;;16.25;74.48;98330.35;105938;1273;95246;-65
2022/09/11 11:05:40;;;;;;;17.60;8.60;;;;;;;16.10;74.49;98327.64;105888;1273;106167;-65
2022/09/11 11:08:16;;;;;;;20.60;9.00;;;;;;;16.03;74.59;98324.39;105975;1272;96597;-65
2022/09/11 11:11:02;;;;;;;18.10;9.60;;;;;;;16.01;74.51;98330.21;105961;1273;96506;-64
2022/09/11 11:13:50;;;;;;;18.00;9.20;;;;;;;15.98;74.60;98332.11;105996;1273;110109;-65
2022/09/11 11:16:45;;;;;;;20.60;10.30;;;;;;;15.92;74.59;98325.60;105952;1273;96673;-66
2022/09/11 11:19:36;;;;;;;18.50;9.90;;;;;;;15.93;74.87;98324.59;105923;1273;108410;-65
2022/09/11 11:22:12;;;;;;;18.10;8.30;;;;;;;15.94;74.71;98321.65;105904;1273;95654;-64
2022/09/11 11:24:51;;;;;;;16.70;9.10;;;;;;;15.94;74.66;98313.56;105966;1273;94276;-64
2022/09/11 11:27:43;;;;;;;19.20;10.50;;;;;;;15.97;74.66;98317.96;105942;1272;110395;-64
2022/09/11 11:30:18;;;;;;;18.60;8.90;;;;;;;16.01;74.60;98319.67;106086;1273;95354;-65
2022/09/11 11:33:08;;;;;;;15.40;8.30;;;;;;;16.09;74.57;98320.98;106076;1273;108549;-66
2022/09/11 11:36:07;;;;;;;20.90;8.80;;;;;;;16.18;74.45;98313.92;106079;1274;95270;-67
2022/09/11 11:38:47;;;;;;;17.50;8.50;;;;;;;16.24;74.40;98316.46;106134;1273;96565;-67
2022/09/11 11:41:26;;;;;;;13.80;7.40;;;;;;;16.31;74.56;98314.45;106057;1273;109639;-64
2022/09/11 11:44:00;;;;;;;16.00;7.60;;;;;;;16.41;74.55;98310.52;106023;1273;96630;-66
2022/09/11 11:46:37;;;;;;;13.90;7.10;;;;;;;16.54;74.47;98307.46;106044;1273;107654;-66